Time;durP1;ratioP1;P1;durP2;ratioP2;P2;SDS_P1;SDS_P2;PMS_P1;PMS_P2;Temp;Humidity;BMP_temperature;BMP_pressure;BME280_temperature;BME280_humidity;BME280_pressure;Samples;Min_cycle;Max_cycle;Signal;HPM_P1;HPM_P2
2023/11/23 00:01:33;;;;;;;27.10;18.27;;;;;;;;;;12819448;22;20071;-69
2023/11/23 00:06:30;;;;;;;26.25;17.42;;;;;;;;;;12818632;22;20034;-69
2023/11/23 00:11:26;;;;;;;29.50;17.63;;;;;;;;;;12819739;22;20468;-69
2023/11/23 00:16:22;;;;;;;29.25;18.40;;;;;;;;;;12818736;22;20054;-68
2023/11/23 00:21:19;;;;;;;24.33;16.73;;;;;;;;;;12819476;22;20027;-69
2023/11/23 00:26:15;;;;;;;27.38;17.27;;;;;;;;;;12814713;22;20120;-68
2023/11/23 00:31:11;;;;;;;27.85;18.27;;;;;;;;;;12819471;22;20394;-68
2023/11/23 00:36:08;;;;;;;27.13;17.77;;;;;;;;;;12820177;22;20692;-68
2023/11/23 00:41:05;;;;;;;27.92;19.23;;;;;;;;;;12818731;22;20090;-68
2023/11/23 00:46:05;;;;;;;26.73;18.50;;;;;;;;;;12818780;22;20081;-68
2023/11/23 00:51:02;;;;;;;28.23;17.88;;;;;;;;;;12820377;22;20031;-68
2023/11/23 00:56:01;;;;;;;28.40;16.35;;;;;;;;;;12818830;22;20031;-68
2023/11/23 01:00:57;;;;;;;32.30;19.90;;;;;;;;;;12819225;22;20510;-68
2023/11/23 01:05:53;;;;;;;34.75;19.55;;;;;;;;;;12818493;22;20019;-68
2023/11/23 01:10:50;;;;;;;28.50;19.27;;;;;;;;;;12818409;22;20106;-67
2023/11/23 01:15:46;;;;;;;28.10;17.80;;;;;;;;;;12819731;22;20441;-68
2023/11/23 01:20:43;;;;;;;30.20;19.77;;;;;;;;;;12818355;22;20023;-68
2023/11/23 01:25:39;;;;;;;34.15;19.67;;;;;;;;;;12812400;22;20019;-68
2023/11/23 01:30:35;;;;;;;38.78;21.00;;;;;;;;;;12818407;22;20023;-69
2023/11/23 01:35:32;;;;;;;39.97;22.40;;;;;;;;;;12815438;22;20077;-67
2023/11/23 01:40:29;;;;;;;36.08;22.13;;;;;;;;;;12818509;22;20441;-69
2023/11/23 01:45:25;;;;;;;37.10;24.25;;;;;;;;;;12819037;22;20019;-68
2023/11/23 01:50:22;;;;;;;37.10;23.67;;;;;;;;;;12812391;22;20058;-67
2023/11/23 01:55:19;;;;;;;36.78;23.67;;;;;;;;;;12818402;22;20019;-67
2023/11/23 02:00:16;;;;;;;31.67;23.77;;;;;;;;;;12817518;22;20026;-67
2023/11/23 02:05:12;;;;;;;35.22;23.77;;;;;;;;;;12816704;22;20015;-67
2023/11/23 02:10:09;;;;;;;41.17;25.17;;;;;;;;;;12818243;22;20019;-68
2023/11/23 02:15:07;;;;;;;34.88;21.67;;;;;;;;;;12818976;22;20022;-68
2023/11/23 02:20:08;;;;;;;37.47;25.23;;;;;;;;;;12819283;22;20070;-68
2023/11/23 02:25:06;;;;;;;36.73;22.37;;;;;;;;;;12818379;22;20540;-68
2023/11/23 02:30:05;;;;;;;42.78;24.60;;;;;;;;;;12819205;22;20016;-68
2023/11/23 02:35:03;;;;;;;34.60;24.63;;;;;;;;;;12820961;22;20553;-67
2023/11/23 02:39:59;;;;;;;39.90;22.15;;;;;;;;;;12825350;22;20027;-67
2023/11/23 02:44:56;;;;;;;38.97;24.30;;;;;;;;;;12823811;22;20078;-69
2023/11/23 02:49:52;;;;;;;42.90;25.25;;;;;;;;;;12822676;22;20047;-69
2023/11/23 02:54:48;;;;;;;42.65;24.02;;;;;;;;;;12823790;22;20092;-68
2023/11/23 02:59:44;;;;;;;49.72;23.75;;;;;;;;;;12823795;22;20023;-69
2023/11/23 03:04:41;;;;;;;40.60;24.25;;;;;;;;;;12817817;22;20023;-67
2023/11/23 03:09:37;;;;;;;39.15;22.90;;;;;;;;;;12823807;22;20030;-67
2023/11/23 03:14:34;;;;;;;36.05;23.15;;;;;;;;;;12824039;22;20034;-68
2023/11/23 03:19:30;;;;;;;38.80;26.48;;;;;;;;;;12824466;22;20028;-68
2023/11/23 03:24:27;;;;;;;33.88;22.05;;;;;;;;;;12822775;22;20031;-67
2023/11/23 03:29:23;;;;;;;42.95;26.25;;;;;;;;;;12823096;22;20116;-67
2023/11/23 03:34:20;;;;;;;43.05;26.85;;;;;;;;;;12823443;22;20020;-67
2023/11/23 03:39:18;;;;;;;34.30;22.65;;;;;;;;;;12823124;22;20024;-67
2023/11/23 03:44:15;;;;;;;42.67;27.70;;;;;;;;;;12822213;22;20047;-67
2023/11/23 03:49:11;;;;;;;46.03;26.33;;;;;;;;;;12822424;22;20026;-67
2023/11/23 03:54:08;;;;;;;34.65;22.00;;;;;;;;;;12822253;22;20085;-67
2023/11/23 03:59:05;;;;;;;35.72;24.13;;;;;;;;;;12822843;22;20162;-67
2023/11/23 04:04:02;;;;;;;36.97;24.10;;;;;;;;;;12816849;22;20469;-68
2023/11/23 04:08:59;;;;;;;31.95;20.95;;;;;;;;;;12821849;22;20525;-68
2023/11/23 04:13:55;;;;;;;33.42;21.92;;;;;;;;;;12820192;22;20457;-68
2023/11/23 04:18:51;;;;;;;30.58;21.30;;;;;;;;;;12821806;22;20349;-68
2023/11/23 04:23:48;;;;;;;25.33;17.95;;;;;;;;;;12821793;22;20073;-68
2023/11/23 04:28:44;;;;;;;34.88;21.20;;;;;;;;;;12822043;22;20020;-68
2023/11/23 04:33:41;;;;;;;32.78;22.45;;;;;;;;;;12822494;22;20030;-68
2023/11/23 04:38:37;;;;;;;29.48;19.90;;;;;;;;;;12821630;22;20364;-68
2023/11/23 04:43:34;;;;;;;33.13;20.55;;;;;;;;;;12821434;22;20027;-67
2023/11/23 04:48:31;;;;;;;34.20;22.27;;;;;;;;;;12821845;22;20019;-66
2023/11/23 04:53:27;;;;;;;37.65;22.33;;;;;;;;;;12820889;22;20122;-68
2023/11/23 04:58:23;;;;;;;31.80;22.58;;;;;;;;;;12821767;22;20023;-68
2023/11/23 05:03:21;;;;;;;33.15;20.35;;;;;;;;;;12819719;22;20030;-67
2023/11/23 05:08:17;;;;;;;31.15;20.60;;;;;;;;;;12822182;22;20365;-67
2023/11/23 05:13:14;;;;;;;40.35;20.13;;;;;;;;;;12814309;22;20033;-65
2023/11/23 05:18:11;;;;;;;30.70;20.40;;;;;;;;;;12820604;22;20274;-67
2023/11/23 05:23:08;;;;;;;34.42;22.20;;;;;;;;;;12820755;22;20577;-67
2023/11/23 05:28:06;;;;;;;34.90;21.92;;;;;;;;;;12821411;22;20031;-67
2023/11/23 05:33:04;;;;;;;36.00;20.00;;;;;;;;;;12818238;22;20425;-71
2023/11/23 05:38:01;;;;;;;36.55;20.15;;;;;;;;;;12819457;22;20117;-71
2023/11/23 05:42:57;;;;;;;31.75;19.08;;;;;;;;;;12817878;22;20027;-70
2023/11/23 05:48:01;;;;;;;26.77;15.32;;;;;;;;;;12815548;22;20051;-70
2023/11/23 05:52:57;;;;;;;30.90;13.88;;;;;;;;;;12818912;22;20027;-72
2023/11/23 05:57:54;;;;;;;20.70;11.38;;;;;;;;;;12810084;22;20034;-71
2023/11/23 06:02:50;;;;;;;24.95;11.45;;;;;;;;;;12817370;22;20031;-71
2023/11/23 06:07:47;;;;;;;29.77;10.30;;;;;;;;;;12823835;22;20027;-71
2023/11/23 06:12:43;;;;;;;23.92;10.38;;;;;;;;;;12817745;22;20038;-70
2023/11/23 06:17:39;;;;;;;20.40;9.57;;;;;;;;;;12821977;22;20476;-73
2023/11/23 06:22:36;;;;;;;16.13;8.93;;;;;;;;;;12817790;22;20030;-73
2023/11/23 06:27:34;;;;;;;18.38;9.13;;;;;;;;;;12822039;22;20492;-73
2023/11/23 06:32:30;;;;;;;24.80;9.80;;;;;;;;;;12823653;22;20024;-73
2023/11/23 06:37:26;;;;;;;23.33;8.73;;;;;;;;;;12822589;22;20038;-73
2023/11/23 06:42:23;;;;;;;24.02;9.32;;;;;;;;;;12823027;22;20081;-73
2023/11/23 06:47:19;;;;;;;19.50;9.68;;;;;;;;;;12821718;22;20073;-73
2023/11/23 06:52:16;;;;;;;19.83;8.88;;;;;;;;;;12823792;22;20034;-72
2023/11/23 06:57:12;;;;;;;23.30;8.70;;;;;;;;;;12823833;22;20027;-74
2023/11/23 07:02:09;;;;;;;18.05;8.23;;;;;;;;;;12820519;22;20023;-74
2023/11/23 07:07:06;;;;;;;17.10;7.07;;;;;;;;;;12816664;22;20106;-73
2023/11/23 07:12:04;;;;;;;23.30;7.78;;;;;;;;;;12820503;22;20031;-72
2023/11/23 07:17:00;;;;;;;19.10;8.10;;;;;;;;;;12822723;22;20476;-74
2023/11/23 07:21:58;;;;;;;19.52;7.40;;;;;;;;;;12821935;22;20030;-74
2023/11/23 07:26:54;;;;;;;24.35;7.05;;;;;;;;;;12821167;22;20077;-74
2023/11/23 07:31:51;;;;;;;24.67;6.63;;;;;;;;;;12821281;22;20447;-73
2023/11/23 07:36:47;;;;;;;22.30;6.30;;;;;;;;;;12822760;22;20029;-74
2023/11/23 07:41:44;;;;;;;17.02;5.40;;;;;;;;;;12823003;22;20031;-73
2023/11/23 07:46:40;;;;;;;17.38;4.95;;;;;;;;;;12821137;22;20338;-72
2023/11/23 07:51:36;;;;;;;20.45;5.63;;;;;;;;;;12820129;22;20027;-72
2023/11/23 07:56:33;;;;;;;15.88;5.03;;;;;;;;;;12823250;22;20031;-73
2023/11/23 08:01:29;;;;;;;16.40;5.18;;;;;;;;;;12821220;22;20388;-73
2023/11/23 08:06:26;;;;;;;17.95;5.35;;;;;;;;;;12821281;22;20473;-73
2023/11/23 08:11:22;;;;;;;25.70;5.70;;;;;;;;;;12820821;22;20085;-74
2023/11/23 08:16:19;;;;;;;19.67;5.63;;;;;;;;;;12822971;22;20027;-73
2023/11/23 08:21:16;;;;;;;12.82;4.85;;;;;;;;;;12822172;22;20027;-73
2023/11/23 08:26:14;;;;;;;16.35;5.93;;;;;;;;;;12819413;22;20074;-73
2023/11/23 08:31:10;;;;;;;18.00;5.13;;;;;;;;;;12819622;22;20022;-74
2023/11/23 08:36:07;;;;;;;17.48;5.65;;;;;;;;;;12821921;22;20077;-74
2023/11/23 08:41:04;;;;;;;13.32;5.43;;;;;;;;;;12821545;22;20404;-73
2023/11/23 08:46:00;;;;;;;16.10;5.30;;;;;;;;;;12821804;22;20025;-73
2023/11/23 08:50:57;;;;;;;17.63;5.65;;;;;;;;;;12820757;22;20031;-73
2023/11/23 08:55:56;;;;;;;14.90;4.82;;;;;;;;;;12820163;22;20098;-74
2023/11/23 09:00:53;;;;;;;21.10;5.10;;;;;;;;;;12821961;22;20027;-75
2023/11/23 09:05:49;;;;;;;15.70;4.45;;;;;;;;;;12847153;22;20034;-74
2023/11/23 09:10:47;;;;;;;19.27;5.80;;;;;;;;;;12821203;22;20023;-74
2023/11/23 09:15:43;;;;;;;17.17;4.45;;;;;;;;;;12820041;22;20023;-73
2023/11/23 09:20:39;;;;;;;18.42;5.15;;;;;;;;;;12819855;22;20023;-75
2023/11/23 09:25:36;;;;;;;15.85;5.32;;;;;;;;;;12821195;22;20415;-74
2023/11/23 09:30:32;;;;;;;18.23;5.10;;;;;;;;;;12821054;22;20019;-74
2023/11/23 09:35:29;;;;;;;16.73;4.90;;;;;;;;;;12821122;22;20081;-73
2023/11/23 09:40:26;;;;;;;20.23;5.40;;;;;;;;;;12821750;22;20019;-73
2023/11/23 09:45:24;;;;;;;18.15;5.53;;;;;;;;;;12820943;22;20027;-74
2023/11/23 09:50:22;;;;;;;13.85;4.93;;;;;;;;;;12820088;22;20506;-74
2023/11/23 09:55:19;;;;;;;18.50;5.03;;;;;;;;;;12821097;22;20331;-73
2023/11/23 10:00:15;;;;;;;18.77;5.25;;;;;;;;;;12846120;22;20023;-74
2023/11/23 10:05:15;;;;;;;13.95;5.57;;;;;;;;;;12820112;22;20016;-74
2023/11/23 10:10:12;;;;;;;12.38;5.20;;;;;;;;;;12820673;22;20046;-74
2023/11/23 10:15:10;;;;;;;13.75;5.15;;;;;;;;;;12818966;22;20022;-74
2023/11/23 10:20:12;;;;;;;15.32;5.15;;;;;;;;;;12821286;22;20066;-74
2023/11/23 10:25:09;;;;;;;16.80;6.10;;;;;;;;;;12820379;22;20065;-74
2023/11/23 10:30:06;;;;;;;19.98;5.50;;;;;;;;;;12820747;22;20476;-74
2023/11/23 10:35:05;;;;;;;17.20;5.70;;;;;;;;;;12819622;22;20098;-74
2023/11/23 10:40:03;;;;;;;16.10;6.22;;;;;;;;;;12821068;22;20106;-74
2023/11/23 10:45:00;;;;;;;15.43;6.00;;;;;;;;;;12818764;22;20050;-74
2023/11/23 10:49:57;;;;;;;9.40;5.18;;;;;;;;;;12822083;22;20026;-74
2023/11/23 10:54:54;;;;;;;16.63;5.60;;;;;;;;;;12822838;22;20027;-74
2023/11/23 10:59:51;;;;;;;15.43;5.80;;;;;;;;;;12823411;22;20093;-74
2023/11/23 11:04:47;;;;;;;14.38;4.90;;;;;;;;;;12821143;22;20023;-74
2023/11/23 11:09:46;;;;;;;15.75;5.60;;;;;;;;;;12822939;22;20077;-74
2023/11/23 11:14:49;;;;;;;16.70;5.70;;;;;;;;;;12820699;22;20027;-74
2023/11/23 11:19:48;;;;;;;10.45;5.38;;;;;;;;;;12821458;22;20023;-74
2023/11/23 11:24:45;;;;;;;12.25;5.57;;;;;;;;;;12822737;22;20026;-74
2023/11/23 11:29:50;;;;;;;13.70;5.32;;;;;;;;;;12822909;22;20051;-74
2023/11/23 11:34:59;;;;;;;16.38;5.75;;;;;;;;;;12822161;22;20090;-74
2023/11/23 11:39:55;;;;;;;17.63;5.80;;;;;;;;;;12821353;22;20077;-74
2023/11/23 11:44:53;;;;;;;11.70;5.10;;;;;;;;;;12821091;22;20023;-74
2023/11/23 11:49:50;;;;;;;12.18;4.88;;;;;;;;;;12821616;22;20026;-74
2023/11/23 11:54:47;;;;;;;14.38;5.35;;;;;;;;;;12813710;22;20452;-74
2023/11/23 11:59:44;;;;;;;17.23;5.85;;;;;;;;;;12818856;22;20016;-74
2023/11/23 12:04:41;;;;;;;13.85;5.70;;;;;;;;;;12821091;22;20015;-75
2023/11/23 12:09:38;;;;;;;17.27;6.13;;;;;;;;;;12820920;22;20517;-74
2023/11/23 12:14:44;;;;;;;11.90;5.70;;;;;;;;;;12821097;22;20055;-75
2023/11/23 12:19:53;;;;;;;13.98;5.80;;;;;;;;;;12822027;22;20054;-75
2023/11/23 12:24:50;;;;;;;15.50;5.80;;;;;;;;;;12822935;22;20023;-75
2023/11/23 12:29:47;;;;;;;19.10;6.50;;;;;;;;;;12821209;22;20023;-74
2023/11/23 12:34:43;;;;;;;18.30;6.38;;;;;;;;;;12821850;22;20026;-74
2023/11/23 12:39:39;;;;;;;20.33;5.75;;;;;;;;;;12822205;22;20353;-74
2023/11/23 12:44:36;;;;;;;15.65;5.50;;;;;;;;;;12821435;22;20802;-74
2023/11/23 12:49:32;;;;;;;21.80;5.28;;;;;;;;;;12821412;22;20019;-74
2023/11/23 12:54:30;;;;;;;17.23;5.47;;;;;;;;;;12819464;22;20031;-73
2023/11/23 12:59:26;;;;;;;12.95;4.80;;;;;;;;;;12817827;22;20029;-73
2023/11/23 13:04:24;;;;;;;14.35;4.47;;;;;;;;;;12818373;22;20346;-73
2023/11/23 13:09:23;;;;;;;8.38;3.80;;;;;;;;;;12841490;22;20707;-74
2023/11/23 13:14:21;;;;;;;8.98;4.00;;;;;;;;;;12819827;22;20023;-73
2023/11/23 13:19:18;;;;;;;15.32;4.15;;;;;;;;;;12818987;22;20077;-73
2023/11/23 13:24:29;;;;;;;7.00;3.30;;;;;;;;;;12821702;22;20527;-73
2023/11/23 13:29:26;;;;;;;8.93;3.90;;;;;;;;;;12820634;22;20039;-73
2023/11/23 13:34:22;;;;;;;13.52;3.83;;;;;;;;;;12821068;22;20633;-74
2023/11/23 13:39:19;;;;;;;8.15;2.78;;;;;;;;;;12819171;22;20019;-73
2023/11/23 13:44:16;;;;;;;8.48;3.50;;;;;;;;;;12818852;22;20371;-73
2023/11/23 13:49:13;;;;;;;11.70;3.20;;;;;;;;;;12819813;22;20034;-73
2023/11/23 13:54:10;;;;;;;12.20;3.17;;;;;;;;;;12821011;22;20076;-73
2023/11/23 13:59:06;;;;;;;11.10;3.95;;;;;;;;;;12821252;22;20015;-73
2023/11/23 14:04:03;;;;;;;13.95;4.05;;;;;;;;;;12819025;22;20464;-73
2023/11/23 14:08:59;;;;;;;11.45;3.20;;;;;;;;;;12818975;22;20353;-73
2023/11/23 14:13:56;;;;;;;7.07;3.10;;;;;;;;;;12820558;22;20019;-73
2023/11/23 14:18:52;;;;;;;11.63;3.67;;;;;;;;;;12820077;22;20016;-73
2023/11/23 14:23:49;;;;;;;8.18;3.20;;;;;;;;;;12818074;22;20027;-73
2023/11/23 14:28:49;;;;;;;8.63;3.08;;;;;;;;;;12821660;22;20030;-73
2023/11/23 14:33:46;;;;;;;9.43;3.33;;;;;;;;;;12824604;22;20023;-73
2023/11/23 14:38:42;;;;;;;6.80;2.95;;;;;;;;;;12824084;22;20019;-74
2023/11/23 14:43:39;;;;;;;8.23;3.20;;;;;;;;;;12824216;22;20027;-73
2023/11/23 14:48:35;;;;;;;6.45;2.70;;;;;;;;;;12824615;22;20031;-74
2023/11/23 14:53:32;;;;;;;8.73;2.65;;;;;;;;;;12821450;22;20020;-74
2023/11/23 14:58:29;;;;;;;9.23;3.08;;;;;;;;;;12821798;22;20020;-74
2023/11/23 15:03:26;;;;;;;14.65;3.38;;;;;;;;;;12819145;22;20088;-74
2023/11/23 15:08:22;;;;;;;7.95;2.13;;;;;;;;;;12821612;22;20027;-73
2023/11/23 15:13:19;;;;;;;4.85;2.72;;;;;;;;;;12809496;22;20027;-73
2023/11/23 15:18:27;;;;;;;6.72;2.65;;;;;;;;;;12813836;22;20637;-73
2023/11/23 15:23:24;;;;;;;13.18;3.05;;;;;;;;;;12820903;22;20059;-74
2023/11/23 15:28:21;;;;;;;12.95;4.03;;;;;;;;;;12823935;22;20019;-73
2023/11/23 15:33:18;;;;;;;11.80;2.80;;;;;;;;;;12823581;22;20016;-73
2023/11/23 15:38:15;;;;;;;6.95;2.63;;;;;;;;;;12820082;22;20098;-73
2023/11/23 15:43:11;;;;;;;10.32;3.38;;;;;;;;;;12819428;22;20035;-74
2023/11/23 15:48:08;;;;;;;12.68;3.33;;;;;;;;;;12821269;22;20023;-73
2023/11/23 15:53:05;;;;;;;13.60;4.00;;;;;;;;;;12820019;22;20365;-73
2023/11/23 15:58:01;;;;;;;16.38;4.05;;;;;;;;;;12820845;22;20026;-73
2023/11/23 16:02:59;;;;;;;9.15;3.10;;;;;;;;;;12820134;22;20089;-73
2023/11/23 16:07:55;;;;;;;6.38;2.97;;;;;;;;;;12819849;22;20051;-73
2023/11/23 16:12:52;;;;;;;12.27;3.03;;;;;;;;;;12812991;22;20066;-73
2023/11/23 16:17:50;;;;;;;12.77;3.47;;;;;;;;;;12818226;22;20027;-73
2023/11/23 16:23:25;;;;;;;15.02;4.50;;;;;;;;;;12813697;22;20609;-74
2023/11/23 16:29:01;;;;;;;8.07;4.15;;;;;;;;;;12805577;22;20106;-74
2023/11/23 16:33:58;;;;;;;20.35;4.85;;;;;;;;;;12830358;22;20034;-73
2023/11/23 16:38:55;;;;;;;9.13;4.10;;;;;;;;;;12816431;22;20034;-72
2023/11/23 16:43:52;;;;;;;8.55;4.60;;;;;;;;;;12819314;22;20023;-73
2023/11/23 16:48:48;;;;;;;4.90;3.42;;;;;;;;;;12815285;22;20034;-74
2023/11/23 16:53:45;;;;;;;11.82;5.07;;;;;;;;;;12787040;22;20051;-73
2023/11/23 16:58:41;;;;;;;10.32;4.63;;;;;;;;;;12814328;22;20023;-73
2023/11/23 17:03:37;;;;;;;9.00;4.35;;;;;;;;;;12819042;22;20465;-72
2023/11/23 17:08:36;;;;;;;13.05;4.32;;;;;;;;;;12818175;22;20111;-72
2023/11/23 17:13:33;;;;;;;13.32;5.28;;;;;;;;;;12808797;22;20030;-72
2023/11/23 17:18:29;;;;;;;8.05;4.13;;;;;;;;;;12819199;22;20473;-73
2023/11/23 17:23:25;;;;;;;12.30;5.15;;;;;;;;;;12818757;22;20030;-72
2023/11/23 17:28:23;;;;;;;14.32;5.70;;;;;;;;;;12818746;22;20529;-72
2023/11/23 17:33:21;;;;;;;13.27;5.20;;;;;;;;;;12815297;22;20022;-73
2023/11/23 17:38:18;;;;;;;17.23;5.93;;;;;;;;;;12815785;22;20043;-73
2023/11/23 17:43:15;;;;;;;15.93;6.40;;;;;;;;;;12816816;22;20023;-73
2023/11/23 17:48:11;;;;;;;22.55;6.70;;;;;;;;;;12819482;22;20027;-73
2023/11/23 17:53:09;;;;;;;13.82;6.63;;;;;;;;;;12791150;22;20019;-73
2023/11/23 17:58:07;;;;;;;20.00;7.03;;;;;;;;;;12818321;22;20023;-73
2023/11/23 18:03:03;;;;;;;20.50;6.60;;;;;;;;;;12821380;22;20023;-73
2023/11/23 18:08:01;;;;;;;26.88;7.15;;;;;;;;;;12822181;22;20027;-73
2023/11/23 18:12:57;;;;;;;22.77;7.30;;;;;;;;;;12821918;22;20030;-73
2023/11/23 18:17:55;;;;;;;23.80;6.50;;;;;;;;;;12822000;22;20023;-73
2023/11/23 18:22:51;;;;;;;25.92;6.57;;;;;;;;;;12822301;22;20492;-73
2023/11/23 18:27:48;;;;;;;25.13;7.43;;;;;;;;;;12795089;22;20023;-73
2023/11/23 18:32:44;;;;;;;29.35;7.05;;;;;;;;;;12822060;22;20073;-73
2023/11/23 18:37:41;;;;;;;33.58;8.45;;;;;;;;;;12816333;22;20015;-73
2023/11/23 18:42:37;;;;;;;28.42;10.60;;;;;;;;;;12821721;22;20469;-73
2023/11/23 18:47:38;;;;;;;26.30;8.25;;;;;;;;;;12822248;22;20023;-74
2023/11/23 18:52:35;;;;;;;33.40;9.20;;;;;;;;;;12808112;22;20023;-74
2023/11/23 18:57:32;;;;;;;21.25;7.40;;;;;;;;;;12820989;22;20030;-74
2023/11/23 19:02:29;;;;;;;24.33;7.15;;;;;;;;;;12821898;22;20080;-74
2023/11/23 19:07:26;;;;;;;19.63;7.40;;;;;;;;;;12793362;22;20058;-74
2023/11/23 19:12:27;;;;;;;27.95;7.72;;;;;;;;;;12819078;22;20026;-74
2023/11/23 19:17:23;;;;;;;32.92;8.20;;;;;;;;;;12821325;22;20138;-74
2023/11/23 19:22:22;;;;;;;21.27;7.72;;;;;;;;;;12819497;22;20027;-76
2023/11/23 19:27:19;;;;;;;28.98;8.18;;;;;;;;;;12813370;22;20364;-74
2023/11/23 19:32:18;;;;;;;23.33;7.70;;;;;;;;;;12815315;22;20024;-74
2023/11/23 19:37:16;;;;;;;17.55;7.15;;;;;;;;;;12818150;22;20069;-74
2023/11/23 19:42:16;;;;;;;18.25;6.82;;;;;;;;;;12813659;22;20638;-74
2023/11/23 19:47:13;;;;;;;18.40;6.25;;;;;;;;;;12816478;22;20039;-74
2023/11/23 19:52:13;;;;;;;26.70;6.65;;;;;;;;;;12788921;22;20138;-73
2023/11/23 19:57:09;;;;;;;27.00;7.15;;;;;;;;;;12819575;22;20030;-74
2023/11/23 20:02:07;;;;;;;13.45;5.30;;;;;;;;;;12819235;22;20096;-74
2023/11/23 20:07:03;;;;;;;25.85;6.20;;;;;;;;;;12815359;22;20084;-74
2023/11/23 20:12:00;;;;;;;19.27;5.32;;;;;;;;;;12816900;22;20042;-68
2023/11/23 20:16:57;;;;;;;19.90;4.63;;;;;;;;;;12815348;22;20027;-69
2023/11/23 20:21:53;;;;;;;13.40;4.32;;;;;;;;;;12809731;22;20338;-68
2023/11/23 20:26:51;;;;;;;13.60;4.60;;;;;;;;;;12815110;22;20030;-69
2023/11/23 20:31:47;;;;;;;11.25;4.88;;;;;;;;;;12813453;22;20400;-69
2023/11/23 20:36:44;;;;;;;8.75;3.63;;;;;;;;;;12816728;22;20031;-69
2023/11/23 20:41:42;;;;;;;8.10;3.80;;;;;;;;;;12812565;22;20027;-69
2023/11/23 20:46:39;;;;;;;8.20;3.20;;;;;;;;;;12843293;22;20080;-69
2023/11/23 20:51:36;;;;;;;11.40;4.32;;;;;;;;;;12818559;22;20099;-68
2023/11/23 20:56:32;;;;;;;17.60;4.53;;;;;;;;;;12818552;22;20030;-68
2023/11/23 21:01:28;;;;;;;21.27;4.50;;;;;;;;;;12817912;22;20023;-69
2023/11/23 21:06:25;;;;;;;14.30;4.80;;;;;;;;;;12818110;22;20027;-69
2023/11/23 21:11:23;;;;;;;17.92;5.03;;;;;;;;;;12817520;22;20019;-69
2023/11/23 21:16:19;;;;;;;12.45;4.60;;;;;;;;;;12818938;22;20019;-69
2023/11/23 21:21:15;;;;;;;19.77;5.05;;;;;;;;;;12816769;22;20338;-69
2023/11/23 21:26:12;;;;;;;12.98;4.28;;;;;;;;;;12791300;22;20102;-69
2023/11/23 21:31:08;;;;;;;17.75;5.18;;;;;;;;;;12811744;22;20015;-68
2023/11/23 21:36:08;;;;;;;20.42;5.47;;;;;;;;;;12818192;22;20050;-68
2023/11/23 21:41:06;;;;;;;18.38;5.50;;;;;;;;;;12817262;22;20030;-67
2023/11/23 21:46:02;;;;;;;23.20;6.20;;;;;;;;;;12814715;22;20046;-68
2023/11/23 21:50:59;;;;;;;19.10;5.22;;;;;;;;;;12817928;22;20342;-67
2023/11/23 21:55:55;;;;;;;16.48;5.65;;;;;;;;;;12817055;22;20073;-68
2023/11/23 22:00:51;;;;;;;18.40;5.43;;;;;;;;;;12818494;22;20023;-68
2023/11/23 22:05:48;;;;;;;12.93;4.90;;;;;;;;;;12818852;22;20055;-68
2023/11/23 22:10:45;;;;;;;20.58;6.15;;;;;;;;;;12818504;22;20098;-68
2023/11/23 22:15:41;;;;;;;25.85;6.13;;;;;;;;;;12817609;22;20089;-68
2023/11/23 22:20:38;;;;;;;21.25;5.03;;;;;;;;;;12819240;22;20357;-69
2023/11/23 22:25:35;;;;;;;17.20;4.97;;;;;;;;;;12816347;22;20076;-69
2023/11/23 22:30:31;;;;;;;17.67;5.43;;;;;;;;;;12790943;22;20342;-68
2023/11/23 22:35:28;;;;;;;25.08;4.88;;;;;;;;;;12812287;22;20019;-68
2023/11/23 22:40:24;;;;;;;20.58;5.18;;;;;;;;;;12817034;22;20055;-68
2023/11/23 22:45:21;;;;;;;23.38;4.63;;;;;;;;;;12812197;22;20084;-68
2023/11/23 22:50:18;;;;;;;20.67;5.50;;;;;;;;;;12821984;22;20065;-67
2023/11/23 22:55:14;;;;;;;17.58;4.35;;;;;;;;;;12792130;22;20728;-68
2023/11/23 23:00:13;;;;;;;23.33;5.75;;;;;;;;;;12821064;22;20019;-68
2023/11/23 23:05:10;;;;;;;28.00;5.40;;;;;;;;;;12822041;22;20061;-68
2023/11/23 23:10:06;;;;;;;15.35;4.80;;;;;;;;;;12821213;22;20031;-67
2023/11/23 23:15:03;;;;;;;30.02;5.60;;;;;;;;;;12821091;22;20019;-68
2023/11/23 23:19:59;;;;;;;20.00;5.78;;;;;;;;;;12821905;22;20673;-69
2023/11/23 23:24:56;;;;;;;15.80;5.20;;;;;;;;;;12820419;22;20023;-69
2023/11/23 23:29:52;;;;;;;19.17;3.97;;;;;;;;;;12819591;22;20106;-67
2023/11/23 23:34:49;;;;;;;17.33;4.55;;;;;;;;;;12816626;22;20022;-67
2023/11/23 23:39:45;;;;;;;15.02;4.22;;;;;;;;;;12818556;22;20023;-68
2023/11/23 23:44:42;;;;;;;18.58;4.85;;;;;;;;;;12820491;22;20027;-67
2023/11/23 23:49:39;;;;;;;28.08;5.75;;;;;;;;;;12814586;22;20027;-67
2023/11/23 23:54:35;;;;;;;21.58;5.53;;;;;;;;;;12819980;22;20019;-68
2023/11/23 23:59:31;;;;;;;18.73;5.35;;;;;;;;;;12818769;22;20035;-67
